Bruck an der Leitha, Austria
Current Conditions -  °F | °C
As of 10:20 AM on Saturday 29 Nov 2014 (Local Time) from LOWW Reporting Station
Drizzle Drizzle  
Wind Chill: 29°   Ceiling: 400
Heat Index: 36°   Visibility: 1.5mi
Dew Point: 36°   Wind: 8mph
Humidity: 100%   Direction: 100°E
Pressure: 30.12"   Gusts: NA
Location:  48.02°N, 16.78°E
Report Text: LOWW 290920Z 10007KT 2400 -DZ BR FEW002 BKN004 02/02 Q1020 TEMPO FEW003 BKN005
Loading
Personal Weather Stations






























Interactive Weather Map New forecast layout! Learn more

10-Day Weather Forecast

Advertisements
Track Severe Weather on mobile